sensor_id;sensor_type;location;lat;lon;timestamp;pressure;altitude;pressure_sealevel;temperature;humidity
58775;BME280;44545;47.480;19.024;2024-03-06T04:24:00;100026.19;;;4.92;100.00
58775;BME280;44545;47.480;19.024;2024-03-06T04:27:03;100026.19;;;4.92;100.00
58775;BME280;44545;47.480;19.024;2024-03-06T04:30:05;100032.66;;;4.15;100.00
58775;BME280;44545;47.480;19.024;2024-03-06T04:33:08;100034.75;;;3.97;100.00
58775;BME280;44545;47.480;19.024;2024-03-06T04:36:10;100042.19;;;4.04;100.00
58775;BME280;44545;47.480;19.024;2024-03-06T04:39:13;100045.13;;;4.21;100.00
58775;BME280;44545;47.480;19.024;2024-03-06T04:42:15;100043.13;;;4.28;100.00
58775;BME280;44545;47.480;19.024;2024-03-06T04:45:17;100041.97;;;4.25;100.00
58775;BME280;44545;47.480;19.024;2024-03-06T04:48:20;100039.97;;;4.21;100.00
58775;BME280;44545;47.480;19.024;2024-03-06T04:51:22;100046.38;;;4.26;100.00
58775;BME280;44545;47.480;19.024;2024-03-06T04:54:24;100057.03;;;4.30;100.00
58775;BME280;44545;47.480;19.024;2024-03-06T04:57:27;100050.37;;;4.22;100.00
58775;BME280;44545;47.480;19.024;2024-03-06T05:00:30;100058.00;;;4.32;100.00
58775;BME280;44545;47.480;19.024;2024-03-06T05:03:33;100061.72;;;4.01;100.00
58775;BME280;44545;47.480;19.024;2024-03-06T05:06:52;100060.25;;;4.04;100.00
58775;BME280;44545;47.480;19.024;2024-03-06T05:10:12;100063.97;;;4.20;100.00
58775;BME280;44545;47.480;19.024;2024-03-06T05:13:32;100062.19;;;4.30;100.00
58775;BME280;44545;47.480;19.024;2024-03-06T05:16:52;100056.31;;;4.09;100.00
58775;BME280;44545;47.480;19.024;2024-03-06T05:20:13;100064.16;;;3.87;100.00
58775;BME280;44545;47.480;19.024;2024-03-06T05:23:33;100059.97;;;3.78;100.00
58775;BME280;44545;47.480;19.024;2024-03-06T05:26:53;100060.50;;;3.74;100.00
58775;BME280;44545;47.480;19.024;2024-03-06T05:30:13;100063.69;;;3.81;100.00
58775;BME280;44545;47.480;19.024;2024-03-06T05:33:34;100066.16;;;3.91;100.00
58775;BME280;44545;47.480;19.024;2024-03-06T05:36:54;100067.06;;;3.92;100.00
58775;BME280;44545;47.480;19.024;2024-03-06T05:40:14;100069.22;;;3.98;100.00
58775;BME280;44545;47.480;19.024;2024-03-06T05:43:34;100069.78;;;4.05;100.00
58775;BME280;44545;47.480;19.024;2024-03-06T05:46:54;100057.56;;;4.15;100.00
58775;BME280;44545;47.480;19.024;2024-03-06T05:50:14;100067.09;;;4.27;100.00
58775;BME280;44545;47.480;19.024;2024-03-06T05:53:38;100065.09;;;4.59;100.00
58775;BME280;44545;47.480;19.024;2024-03-06T05:56:59;100069.28;;;5.05;100.00
58775;BME280;44545;47.480;19.024;2024-03-06T06:00:19;100064.56;;;5.61;100.00
58775;BME280;44545;47.480;19.024;2024-03-06T06:03:24;100067.66;;;6.19;100.00
58775;BME280;44545;47.480;19.024;2024-03-06T06:06:26;100073.16;;;6.77;100.00
58775;BME280;44545;47.480;19.024;2024-03-06T06:09:30;100068.31;;;7.38;100.00
58775;BME280;44545;47.480;19.024;2024-03-06T06:12:33;100071.47;;;8.05;100.00
58775;BME280;44545;47.480;19.024;2024-03-06T06:15:36;100074.00;;;8.63;100.00
58775;BME280;44545;47.480;19.024;2024-03-06T06:18:40;100075.84;;;8.80;100.00
58775;BME280;44545;47.480;19.024;2024-03-06T06:21:44;100081.66;;;9.22;100.00
58775;BME280;44545;47.480;19.024;2024-03-06T06:24:46;100071.25;;;9.88;100.00
58775;BME280;44545;47.480;19.024;2024-03-06T06:27:49;100070.28;;;10.72;100.00
58775;BME280;44545;47.480;19.024;2024-03-06T06:30:52;100062.97;;;11.97;100.00
58775;BME280;44545;47.480;19.024;2024-03-06T06:33:54;100065.03;;;12.04;97.05
58775;BME280;44545;47.480;19.024;2024-03-06T06:36:56;100071.63;;;11.57;97.97
58775;BME280;44545;47.480;19.024;2024-03-06T06:39:59;100066.63;;;11.81;96.06
58775;BME280;44545;47.480;19.024;2024-03-06T06:43:02;100071.44;;;12.31;90.96
58775;BME280;44545;47.480;19.024;2024-03-06T06:46:05;100080.44;;;13.02;91.40
58775;BME280;44545;47.480;19.024;2024-03-06T06:49:08;100072.56;;;13.70;80.10
58775;BME280;44545;47.480;19.024;2024-03-06T06:52:11;100072.28;;;13.17;82.76
58775;BME280;44545;47.480;19.024;2024-03-06T06:55:13;100074.66;;;12.89;83.51
58775;BME280;44545;47.480;19.024;2024-03-06T06:58:16;100087.25;;;13.66;79.84
58775;BME280;44545;47.480;19.024;2024-03-06T07:01:18;100101.34;;;14.95;72.42
58775;BME280;44545;47.480;19.024;2024-03-06T07:04:22;100093.69;;;14.74;68.98
58775;BME280;44545;47.480;19.024;2024-03-06T07:07:26;100056.97;;;13.75;73.56
58775;BME280;44545;47.480;19.024;2024-03-06T07:10:28;100076.66;;;13.17;79.00
58775;BME280;44545;47.480;19.024;2024-03-06T07:13:31;100089.41;;;12.45;84.76
58775;BME280;44545;47.480;19.024;2024-03-06T07:16:33;100092.44;;;11.75;92.79
58775;BME280;44545;47.480;19.024;2024-03-06T07:19:36;100091.69;;;11.77;96.34
58775;BME280;44545;47.480;19.024;2024-03-06T07:22:38;100080.50;;;12.40;94.08
58775;BME280;44545;47.480;19.024;2024-03-06T07:25:40;100084.84;;;12.39;92.87
58775;BME280;44545;47.480;19.024;2024-03-06T07:28:43;100083.22;;;12.43;95.00
58775;BME280;44545;47.480;19.024;2024-03-06T07:31:45;100091.09;;;13.07;88.25
58775;BME280;44545;47.480;19.024;2024-03-06T07:34:48;100092.00;;;13.77;82.23
58775;BME280;44545;47.480;19.024;2024-03-06T07:37:50;100086.25;;;13.18;82.64
58775;BME280;44545;47.480;19.024;2024-03-06T07:40:53;100087.78;;;13.34;83.48
58775;BME280;44545;47.480;19.024;2024-03-06T07:43:55;100088.13;;;13.43;84.84
58775;BME280;44545;47.480;19.024;2024-03-06T07:46:58;100102.38;;;13.27;84.54
58775;BME280;44545;47.480;19.024;2024-03-06T07:50:00;100102.47;;;13.53;82.32
58775;BME280;44545;47.480;19.024;2024-03-06T07:53:03;100102.06;;;13.19;84.09
58775;BME280;44545;47.480;19.024;2024-03-06T07:56:05;100104.41;;;13.13;86.27
58775;BME280;44545;47.480;19.024;2024-03-06T07:59:08;100099.28;;;13.37;85.15
58775;BME280;44545;47.480;19.024;2024-03-06T08:02:11;100112.66;;;13.45;82.97
58775;BME280;44545;47.480;19.024;2024-03-06T08:05:13;100102.53;;;13.32;84.50
58775;BME280;44545;47.480;19.024;2024-03-06T08:08:16;100100.09;;;13.83;81.51
58775;BME280;44545;47.480;19.024;2024-03-06T08:11:18;100112.41;;;15.12;75.81
58775;BME280;44545;47.480;19.024;2024-03-06T08:14:21;100100.63;;;14.48;75.48
58775;BME280;44545;47.480;19.024;2024-03-06T08:17:23;100137.38;;;15.55;69.88
58775;BME280;44545;47.480;19.024;2024-03-06T08:20:25;100117.59;;;15.68;68.46
58775;BME280;44545;47.480;19.024;2024-03-06T08:23:29;100165.81;;;16.62;62.55
58775;BME280;44545;47.480;19.024;2024-03-06T08:26:32;100175.84;;;17.46;58.87
58775;BME280;44545;47.480;19.024;2024-03-06T08:29:35;100210.69;;;17.71;54.56
58775;BME280;44545;47.480;19.024;2024-03-06T08:32:37;100175.06;;;17.88;54.54
58775;BME280;44545;47.480;19.024;2024-03-06T08:35:40;100136.00;;;16.96;55.52
58775;BME280;44545;47.480;19.024;2024-03-06T08:38:43;100191.88;;;17.95;53.13
58775;BME280;44545;47.480;19.024;2024-03-06T08:41:46;100166.22;;;17.48;53.87
58775;BME280;44545;47.480;19.024;2024-03-06T08:44:48;100196.00;;;18.25;51.58
58775;BME280;44545;47.480;19.024;2024-03-06T08:47:51;100155.22;;;16.92;52.55
58775;BME280;44545;47.480;19.024;2024-03-06T08:50:57;100121.75;;;16.55;54.11
58775;BME280;44545;47.480;19.024;2024-03-06T08:53:59;100154.34;;;16.92;53.19
58775;BME280;44545;47.480;19.024;2024-03-06T08:57:02;100171.16;;;17.72;52.33
58775;BME280;44545;47.480;19.024;2024-03-06T09:00:07;100311.84;;;19.93;45.40
58775;BME280;44545;47.480;19.024;2024-03-06T09:03:16;100300.91;;;20.31;44.49
58775;BME280;44545;47.480;19.024;2024-03-06T09:06:19;100264.94;;;19.30;44.34
58775;BME280;44545;47.480;19.024;2024-03-06T09:09:21;100258.94;;;19.41;44.65
58775;BME280;44545;47.480;19.024;2024-03-06T09:12:24;100274.72;;;19.90;43.53
58775;BME280;44545;47.480;19.024;2024-03-06T09:15:26;100320.22;;;20.24;41.65
58775;BME280;44545;47.480;19.024;2024-03-06T09:18:28;100287.09;;;19.92;42.50
58775;BME280;44545;47.480;19.024;2024-03-06T09:21:31;100292.53;;;20.02;41.82
58775;BME280;44545;47.480;19.024;2024-03-06T09:24:33;100234.22;;;18.88;43.68
58775;BME280;44545;47.480;19.024;2024-03-06T09:27:40;100203.75;;;19.08;44.41
58775;BME280;44545;47.480;19.024;2024-03-06T09:30:42;100200.84;;;18.93;44.76
58775;BME280;44545;47.480;19.024;2024-03-06T09:33:44;100185.50;;;18.73;45.12
58775;BME280;44545;47.480;19.024;2024-03-06T09:36:49;100140.66;;;17.84;46.81
58775;BME280;44545;47.480;19.024;2024-03-06T09:39:52;100083.72;;;17.13;49.43
58775;BME280;44545;47.480;19.024;2024-03-06T09:42:55;100126.34;;;17.74;48.25
58775;BME280;44545;47.480;19.024;2024-03-06T09:45:57;100130.50;;;18.04;47.84
58775;BME280;44545;47.480;19.024;2024-03-06T09:49:00;100189.94;;;19.24;45.68
58775;BME280;44545;47.480;19.024;2024-03-06T09:52:03;100266.47;;;20.31;42.84
58775;BME280;44545;47.480;19.024;2024-03-06T09:55:07;100283.44;;;21.29;41.54
58775;BME280;44545;47.480;19.024;2024-03-06T09:58:12;100250.47;;;20.96;42.03
58775;BME280;44545;47.480;19.024;2024-03-06T10:01:14;100238.19;;;21.08;42.28
58775;BME280;44545;47.480;19.024;2024-03-06T10:04:27;100170.62;;;19.89;44.34
58775;BME280;44545;47.480;19.024;2024-03-06T10:07:30;100149.47;;;19.91;44.86
58775;BME280;44545;47.480;19.024;2024-03-06T10:10:32;100228.00;;;21.52;42.58
58775;BME280;44545;47.480;19.024;2024-03-06T10:13:34;100313.69;;;22.83;39.08
58775;BME280;44545;47.480;19.024;2024-03-06T10:16:37;100352.87;;;23.61;37.32
58775;BME280;44545;47.480;19.024;2024-03-06T10:19:40;100356.44;;;23.53;36.79
58775;BME280;44545;47.480;19.024;2024-03-06T10:22:42;100370.66;;;23.98;35.93
58775;BME280;44545;47.480;19.024;2024-03-06T10:25:47;100404.09;;;25.24;34.52
58775;BME280;44545;47.480;19.024;2024-03-06T10:28:53;100486.16;;;26.37;31.80
58775;BME280;44545;47.480;19.024;2024-03-06T10:31:57;100427.19;;;25.36;32.94
58775;BME280;44545;47.480;19.024;2024-03-06T10:35:01;100405.09;;;25.00;33.41
58775;BME280;44545;47.480;19.024;2024-03-06T10:38:04;100311.16;;;23.33;35.72
58775;BME280;44545;47.480;19.024;2024-03-06T10:41:08;100349.28;;;24.38;34.47
58775;BME280;44545;47.480;19.024;2024-03-06T10:44:12;100275.56;;;22.84;36.30
58775;BME280;44545;47.480;19.024;2024-03-06T10:47:19;100405.50;;;25.88;32.26
58775;BME280;44545;47.480;19.024;2024-03-06T10:50:21;100423.53;;;25.55;31.62
58775;BME280;44545;47.480;19.024;2024-03-06T10:53:25;100411.78;;;25.78;31.50
58775;BME280;44545;47.480;19.024;2024-03-06T10:56:31;100466.12;;;27.56;29.60
58775;BME280;44545;47.480;19.024;2024-03-06T10:59:34;100436.66;;;25.87;30.70
58775;BME280;44545;47.480;19.024;2024-03-06T11:02:37;100222.12;;;22.05;36.43
58775;BME280;44545;47.480;19.024;2024-03-06T11:05:41;100062.97;;;19.85;41.36
58775;BME280;44545;47.480;19.024;2024-03-06T11:08:44;100005.56;;;19.11;43.76
58775;BME280;44545;47.480;19.024;2024-03-06T11:11:50;99947.63;;;18.08;46.16
58775;BME280;44545;47.480;19.024;2024-03-06T11:14:57;99967.56;;;18.42;46.33
58775;BME280;44545;47.480;19.024;2024-03-06T11:21:31;100008.69;;;18.82;45.58
58775;BME280;44545;47.480;19.024;2024-03-06T11:24:34;100030.94;;;18.98;44.71
58775;BME280;44545;47.480;19.024;2024-03-06T11:28:02;100035.19;;;19.51;44.35
58775;BME280;44545;47.480;19.024;2024-03-06T11:31:12;100180.28;;;21.63;39.44
58775;BME280;44545;47.480;19.024;2024-03-06T11:34:21;100513.94;;;28.44;28.82
58775;BME280;44545;47.480;19.024;2024-03-06T11:37:24;100707.34;;;32.98;23.00
58775;BME280;44545;47.480;19.024;2024-03-06T11:40:27;100795.25;;;35.09;19.86
58775;BME280;44545;47.480;19.024;2024-03-06T11:43:30;100540.75;;;28.47;25.66
58775;BME280;44545;47.480;19.024;2024-03-06T11:46:43;100200.19;;;22.53;34.37
58775;BME280;44545;47.480;19.024;2024-03-06T11:49:45;100025.88;;;20.75;40.02
58775;BME280;44545;47.480;19.024;2024-03-06T11:52:47;100063.00;;;20.80;39.31
58775;BME280;44545;47.480;19.024;2024-03-06T11:55:50;100045.25;;;20.67;40.39
58775;BME280;44545;47.480;19.024;2024-03-06T11:58:53;100090.66;;;21.17;39.00
58775;BME280;44545;47.480;19.024;2024-03-06T12:01:58;100153.97;;;22.15;36.92
58775;BME280;44545;47.480;19.024;2024-03-06T12:05:04;100080.87;;;21.09;39.24
58775;BME280;44545;47.480;19.024;2024-03-06T12:08:07;100015.62;;;20.13;41.42
58775;BME280;44545;47.480;19.024;2024-03-06T12:11:13;99960.97;;;18.72;43.49
58775;BME280;44545;47.480;19.024;2024-03-06T12:14:18;99948.75;;;18.77;44.01
58775;BME280;44545;47.480;19.024;2024-03-06T12:17:21;99925.03;;;18.24;45.42
58775;BME280;44545;47.480;19.024;2024-03-06T12:20:25;99926.19;;;18.41;45.47
58775;BME280;44545;47.480;19.024;2024-03-06T12:23:30;99939.34;;;18.39;45.63
58775;BME280;44545;47.480;19.024;2024-03-06T12:26:32;99940.28;;;18.41;45.77
58775;BME280;44545;47.480;19.024;2024-03-06T12:29:36;99954.13;;;18.84;45.11
58775;BME280;44545;47.480;19.024;2024-03-06T12:32:40;99972.59;;;18.81;44.86
58775;BME280;44545;47.480;19.024;2024-03-06T12:35:42;99948.50;;;18.61;45.64
58775;BME280;44545;47.480;19.024;2024-03-06T12:38:54;99971.81;;;18.90;44.74
58775;BME280;44545;47.480;19.024;2024-03-06T12:41:56;99942.91;;;18.43;45.94
58775;BME280;44545;47.480;19.024;2024-03-06T12:44:59;99940.00;;;18.23;46.18
58775;BME280;44545;47.480;19.024;2024-03-06T12:48:03;99922.38;;;18.22;46.59
58775;BME280;44545;47.480;19.024;2024-03-06T12:51:05;99940.84;;;18.21;46.38
58775;BME280;44545;47.480;19.024;2024-03-06T12:54:08;99905.28;;;17.50;47.83
58775;BME280;44545;47.480;19.024;2024-03-06T12:57:11;99868.19;;;16.95;49.62
58775;BME280;44545;47.480;19.024;2024-03-06T13:00:15;99894.50;;;17.38;49.21
58775;BME280;44545;47.480;19.024;2024-03-06T13:03:18;99932.63;;;17.57;48.54
58775;BME280;44545;47.480;19.024;2024-03-06T13:06:21;99893.19;;;17.16;50.44
58775;BME280;44545;47.480;19.024;2024-03-06T13:09:23;99906.09;;;17.03;50.32
58775;BME280;44545;47.480;19.024;2024-03-06T13:12:26;99889.44;;;16.63;51.30
58775;BME280;44545;47.480;19.024;2024-03-06T13:15:29;99880.31;;;16.10;53.59
58775;BME280;44545;47.480;19.024;2024-03-06T13:18:34;99884.91;;;15.82;55.26
58775;BME280;44545;47.480;19.024;2024-03-06T13:21:36;99906.25;;;15.61;56.85
58775;BME280;44545;47.480;19.024;2024-03-06T13:24:39;99906.59;;;15.42;60.38
58775;BME280;44545;47.480;19.024;2024-03-06T13:27:45;99948.75;;;15.45;58.19
58775;BME280;44545;47.480;19.024;2024-03-06T13:30:47;99948.03;;;15.52;58.13
58775;BME280;44545;47.480;19.024;2024-03-06T13:33:50;99941.91;;;15.51;58.39
58775;BME280;44545;47.480;19.024;2024-03-06T13:36:52;99950.44;;;15.74;57.51
58775;BME280;44545;47.480;19.024;2024-03-06T13:39:56;99949.13;;;15.92;56.41
58775;BME280;44545;47.480;19.024;2024-03-06T13:43:03;99931.47;;;16.21;56.69
58775;BME280;44545;47.480;19.024;2024-03-06T13:46:05;99938.47;;;16.22;56.13
58775;BME280;44545;47.480;19.024;2024-03-06T13:49:08;99950.00;;;16.25;55.18
58775;BME280;44545;47.480;19.024;2024-03-06T13:52:24;99941.28;;;15.93;55.47
58775;BME280;44545;47.480;19.024;2024-03-06T13:55:27;99928.91;;;15.89;55.75
58775;BME280;44545;47.480;19.024;2024-03-06T13:58:33;99906.91;;;15.52;59.13
58775;BME280;44545;47.480;19.024;2024-03-06T14:01:35;99894.06;;;15.31;61.41
58775;BME280;44545;47.480;19.024;2024-03-06T14:04:37;99909.97;;;15.06;63.73
58775;BME280;44545;47.480;19.024;2024-03-06T14:07:41;99907.69;;;14.86;64.55
58775;BME280;44545;47.480;19.024;2024-03-06T14:10:44;99910.84;;;14.76;65.08
58775;BME280;44545;47.480;19.024;2024-03-06T14:13:48;99903.56;;;14.66;64.07
58775;BME280;44545;47.480;19.024;2024-03-06T14:16:50;99911.22;;;14.31;62.34
58775;BME280;44545;47.480;19.024;2024-03-06T14:19:53;99917.16;;;13.98;66.19
58775;BME280;44545;47.480;19.024;2024-03-06T14:22:55;99911.03;;;13.47;77.41
58775;BME280;44545;47.480;19.024;2024-03-06T14:25:58;99917.37;;;13.05;86.11
58775;BME280;44545;47.480;19.024;2024-03-06T14:29:01;99915.69;;;12.16;100.00
58775;BME280;44545;47.480;19.024;2024-03-06T14:32:04;99909.75;;;11.78;100.00
58775;BME280;44545;47.480;19.024;2024-03-06T14:35:08;99911.66;;;11.61;100.00
58775;BME280;44545;47.480;19.024;2024-03-06T14:38:10;99908.94;;;11.59;100.00
58775;BME280;44545;47.480;19.024;2024-03-06T14:41:15;99906.75;;;11.68;100.00
58775;BME280;44545;47.480;19.024;2024-03-06T14:44:20;99908.28;;;11.63;100.00
58775;BME280;44545;47.480;19.024;2024-03-06T14:47:22;99909.09;;;11.83;100.00
58775;BME280;44545;47.480;19.024;2024-03-06T14:50:25;99916.47;;;12.13;100.00
58775;BME280;44545;47.480;19.024;2024-03-06T14:53:27;99905.12;;;12.35;96.02
58775;BME280;44545;47.480;19.024;2024-03-06T14:56:30;99901.25;;;12.70;95.26
58775;BME280;44545;47.480;19.024;2024-03-06T14:59:33;99901.72;;;12.83;91.67
58775;BME280;44545;47.480;19.024;2024-03-06T15:02:36;99898.09;;;13.03;99.17
58775;BME280;44545;47.480;19.024;2024-03-06T15:05:38;99901.25;;;13.18;98.08
58775;BME280;44545;47.480;19.024;2024-03-06T15:08:40;99907.25;;;13.14;86.46
58775;BME280;44545;47.480;19.024;2024-03-06T15:11:44;99893.66;;;13.00;92.57
58775;BME280;44545;47.480;19.024;2024-03-06T15:14:46;99896.22;;;12.99;95.70
58775;BME280;44545;47.480;19.024;2024-03-06T15:17:58;99898.56;;;12.91;95.06
58775;BME280;44545;47.480;19.024;2024-03-06T15:21:01;99896.75;;;12.66;100.00
58775;BME280;44545;47.480;19.024;2024-03-06T15:24:04;99904.31;;;12.58;94.90
58775;BME280;44545;47.480;19.024;2024-03-06T15:27:07;99912.63;;;12.48;97.05
58775;BME280;44545;47.480;19.024;2024-03-06T15:30:10;99905.78;;;12.52;97.13
58775;BME280;44545;47.480;19.024;2024-03-06T15:33:16;99900.94;;;12.63;95.15
58775;BME280;44545;47.480;19.024;2024-03-06T15:36:19;99906.00;;;12.80;91.49
58775;BME280;44545;47.480;19.024;2024-03-06T15:39:21;99905.66;;;12.71;92.39
58775;BME280;44545;47.480;19.024;2024-03-06T15:42:24;99902.97;;;12.70;95.59
58775;BME280;44545;47.480;19.024;2024-03-06T15:45:26;99914.69;;;12.57;96.45
58775;BME280;44545;47.480;19.024;2024-03-06T15:48:29;99910.53;;;12.62;97.05
58775;BME280;44545;47.480;19.024;2024-03-06T15:51:34;99910.53;;;12.62;96.85
58775;BME280;44545;47.480;19.024;2024-03-06T15:54:37;99912.84;;;12.54;95.80
58775;BME280;44545;47.480;19.024;2024-03-06T15:57:39;99918.56;;;12.67;97.37
58775;BME280;44545;47.480;19.024;2024-03-06T16:00:42;99908.59;;;12.80;100.00
58775;BME280;44545;47.480;19.024;2024-03-06T16:03:45;99907.53;;;12.75;100.00
58775;BME280;44545;47.480;19.024;2024-03-06T16:06:47;99918.59;;;12.68;99.45
58775;BME280;44545;47.480;19.024;2024-03-06T16:09:50;99917.41;;;12.60;98.21
58775;BME280;44545;47.480;19.024;2024-03-06T16:12:53;99914.88;;;12.62;98.10
58775;BME280;44545;47.480;19.024;2024-03-06T16:15:59;99915.75;;;12.62;100.00
58775;BME280;44545;47.480;19.024;2024-03-06T16:19:01;99918.94;;;12.53;100.00
58775;BME280;44545;47.480;19.024;2024-03-06T16:22:03;99925.41;;;12.41;100.00
58775;BME280;44545;47.480;19.024;2024-03-06T16:25:06;99928.03;;;12.41;100.00
